createdAt,value
2018-12-13T00:00:18.324Z,80.64
2018-12-13T00:01:23.024Z,80.51
2018-12-13T00:02:27.595Z,80.33
2018-12-13T00:03:31.912Z,80.34
2018-12-13T00:04:36.524Z,79.05
2018-12-13T00:05:41.025Z,80.79
2018-12-13T00:06:45.501Z,80.67
2018-12-13T00:07:49.797Z,79.00
2018-12-13T00:08:54.254Z,78.68
2018-12-13T00:09:58.745Z,79.19
2018-12-13T00:11:03.854Z,78.74
2018-12-13T00:12:08.090Z,80.82
2018-12-13T00:13:12.674Z,80.21
2018-12-13T00:14:16.695Z,80.35
2018-12-13T00:15:24.887Z,80.36
2018-12-13T00:16:28.896Z,80.05
2018-12-13T00:17:32.987Z,79.94
2018-12-13T00:18:37.185Z,79.26
2018-12-13T00:19:41.134Z,79.53
2018-12-13T00:20:45.044Z,80.76
2018-12-13T00:21:48.892Z,80.53
2018-12-13T00:22:52.826Z,79.75
2018-12-13T00:23:56.770Z,79.50
2018-12-13T00:25:00.697Z,77.41
2018-12-13T00:26:04.589Z,78.78
2018-12-13T00:27:08.523Z,79.03
2018-12-13T00:28:12.517Z,80.05
2018-12-13T00:29:16.416Z,78.44
2018-12-13T00:30:20.391Z,80.15
2018-12-13T00:31:24.443Z,79.17
2018-12-13T00:32:28.390Z,79.19
2018-12-13T00:33:32.381Z,80.83
2018-12-13T00:34:36.289Z,80.62
2018-12-13T00:35:40.304Z,80.74
2018-12-13T00:36:44.288Z,80.60
2018-12-13T00:37:48.239Z,79.99
2018-12-13T00:38:52.645Z,79.80
2018-12-13T00:39:56.552Z,80.17
2018-12-13T00:41:00.510Z,80.10
2018-12-13T00:42:04.490Z,80.59
2018-12-13T00:43:08.634Z,80.82
2018-12-13T00:44:12.692Z,78.67
2018-12-13T00:45:17.343Z,80.56
2018-12-13T00:46:21.269Z,81.57
2018-12-13T00:47:25.222Z,79.39
2018-12-13T00:48:29.151Z,79.59
2018-12-13T00:49:33.089Z,79.21
2018-12-13T00:50:37.016Z,79.75
2018-12-13T00:51:41.036Z,81.78
2018-12-13T00:52:44.952Z,80.84
2018-12-13T00:53:48.942Z,80.63
2018-12-13T00:54:52.947Z,78.27
2018-12-13T00:55:56.815Z,80.48
2018-12-13T00:57:00.734Z,81.46
2018-12-13T00:58:05.057Z,81.10
2018-12-13T00:59:09.071Z,81.26
2018-12-13T01:00:13.110Z,81.78
2018-12-13T01:01:17.450Z,82.31
2018-12-13T01:02:21.430Z,82.21
2018-12-13T01:03:25.366Z,80.76
2018-12-13T01:04:29.304Z,80.34
2018-12-13T01:05:33.315Z,81.67
2018-12-13T01:06:37.656Z,81.20
2018-12-13T01:07:41.652Z,80.80
2018-12-13T01:08:46.026Z,81.59
2018-12-13T01:09:50.141Z,82.14
2018-12-13T01:10:54.481Z,80.06
2018-12-13T01:11:58.468Z,79.41
2018-12-13T01:13:02.628Z,78.92
2018-12-13T01:14:06.641Z,79.79
2018-12-13T01:15:10.856Z,80.03
2018-12-13T01:16:20.329Z,81.24
2018-12-13T01:17:24.979Z,80.74
2018-12-13T01:18:29.328Z,79.09
2018-12-13T01:19:33.936Z,79.04
2018-12-13T01:20:38.432Z,80.02
2018-12-13T01:21:49.395Z,80.34
2018-12-13T01:22:53.636Z,81.14
2018-12-13T01:23:57.565Z,81.49
2018-12-13T01:25:02.277Z,81.55
2018-12-13T01:26:06.688Z,81.56
2018-12-13T01:27:10.911Z,80.42
2018-12-13T01:28:15.184Z,78.93
2018-12-13T01:29:19.489Z,81.88
2018-12-13T01:30:23.537Z,81.02
2018-12-13T01:31:27.498Z,80.86
2018-12-13T01:32:31.441Z,81.76
2018-12-13T01:33:35.367Z,82.15
2018-12-13T01:34:39.267Z,82.44
2018-12-13T01:35:43.203Z,80.88
2018-12-13T01:36:52.388Z,80.95
2018-12-13T01:37:51.188Z,81.87
2018-12-13T01:38:55.134Z,81.25
2018-12-13T01:39:59.157Z,82.05
2018-12-13T01:41:03.068Z,82.07
2018-12-13T01:42:06.937Z,82.47
2018-12-13T01:43:10.983Z,80.36
2018-12-13T01:44:14.862Z,81.90
2018-12-13T01:45:18.952Z,82.78
2018-12-13T01:46:22.921Z,81.03
2018-12-13T01:47:26.844Z,81.51
2018-12-13T01:48:30.942Z,80.16
2018-12-13T01:49:34.883Z,79.73
2018-12-13T01:50:38.855Z,81.30
2018-12-13T01:51:42.727Z,81.49
2018-12-13T01:52:46.643Z,80.89
2018-12-13T01:53:50.654Z,82.14
2018-12-13T01:54:54.554Z,79.03
2018-12-13T01:55:58.461Z,80.32
2018-12-13T01:57:02.367Z,79.74
2018-12-13T01:58:06.301Z,81.72
2018-12-13T01:59:10.341Z,81.54
2018-12-13T02:00:14.593Z,82.50
2018-12-13T02:01:18.945Z,82.01
2018-12-13T02:02:23.101Z,82.42
2018-12-13T02:03:27.283Z,82.66
2018-12-13T02:04:31.677Z,83.29
2018-12-13T02:05:35.903Z,83.10
2018-12-13T02:06:40.139Z,82.59
2018-12-13T02:07:44.485Z,82.43
2018-12-13T02:08:48.739Z,81.87
2018-12-13T02:09:53.173Z,82.01
2018-12-13T02:10:57.457Z,82.47
2018-12-13T02:12:01.713Z,81.41
2018-12-13T02:13:05.880Z,80.27
2018-12-13T02:14:10.119Z,80.86
2018-12-13T02:15:14.542Z,81.92
2018-12-13T02:16:18.705Z,82.10
2018-12-13T02:17:23.035Z,82.26
2018-12-13T02:18:27.327Z,82.25
2018-12-13T02:19:31.659Z,80.47
2018-12-13T02:20:35.862Z,81.37
2018-12-13T02:21:40.151Z,78.86
2018-12-13T02:22:44.378Z,78.51
2018-12-13T02:23:48.662Z,77.90
2018-12-13T02:24:53.073Z,77.35
2018-12-13T02:25:57.303Z,78.41
2018-12-13T02:27:01.694Z,79.51
2018-12-13T02:28:06.103Z,78.73
2018-12-13T02:29:10.410Z,78.67
2018-12-13T02:30:14.606Z,81.22
2018-12-13T02:31:18.897Z,80.17
2018-12-13T02:32:23.100Z,80.33
2018-12-13T02:33:27.379Z,80.34
2018-12-13T02:34:31.774Z,79.88
2018-12-13T02:35:36.156Z,79.71
2018-12-13T02:36:40.675Z,80.21
2018-12-13T02:37:44.970Z,80.83
2018-12-13T02:38:49.283Z,81.82
2018-12-13T02:39:53.559Z,81.39
2018-12-13T02:40:57.840Z,83.17
2018-12-13T02:42:02.112Z,80.32
2018-12-13T02:43:06.292Z,80.68
2018-12-13T02:44:10.582Z,80.96
2018-12-13T02:45:14.823Z,80.08
2018-12-13T02:46:19.165Z,79.06
2018-12-13T02:47:23.587Z,79.51
2018-12-13T02:48:27.728Z,80.56
2018-12-13T02:49:32.182Z,80.02
2018-12-13T02:50:36.437Z,80.48
2018-12-13T02:51:40.740Z,81.24
2018-12-13T02:52:45.099Z,81.73
2018-12-13T02:53:49.407Z,82.18
2018-12-13T02:54:53.591Z,82.00
2018-12-13T02:55:57.878Z,83.09
2018-12-13T02:57:01.755Z,83.69
2018-12-13T02:58:06.199Z,83.52
2018-12-13T02:59:10.406Z,83.36
2018-12-13T03:00:14.742Z,83.36
2018-12-13T03:01:18.918Z,83.60
2018-12-13T03:02:23.256Z,82.98
2018-12-13T03:03:27.572Z,82.37
2018-12-13T03:04:31.895Z,81.80
2018-12-13T03:05:36.189Z,82.97
2018-12-13T03:06:40.473Z,83.01
2018-12-13T03:07:44.474Z,82.99
2018-12-13T03:08:48.372Z,81.35
2018-12-13T03:09:52.704Z,82.47
2018-12-13T03:10:56.985Z,81.47
2018-12-13T03:12:00.927Z,82.56
2018-12-13T03:13:05.099Z,82.45
2018-12-13T03:14:09.149Z,80.46
2018-12-13T03:15:13.111Z,79.41
2018-12-13T03:16:17.032Z,78.67
2018-12-13T03:17:20.986Z,79.62
2018-12-13T03:18:24.915Z,79.34
2018-12-13T03:19:28.855Z,78.88
2018-12-13T03:20:32.772Z,78.73
2018-12-13T03:21:36.756Z,81.21
2018-12-13T03:22:40.719Z,79.77
2018-12-13T03:23:44.709Z,80.73
2018-12-13T03:24:48.642Z,80.20
2018-12-13T03:25:52.590Z,80.42
2018-12-13T03:26:56.501Z,81.34
2018-12-13T03:28:00.450Z,82.95
2018-12-13T03:29:04.436Z,82.58
2018-12-13T03:30:08.515Z,83.14
2018-12-13T03:31:12.440Z,81.44
2018-12-13T03:32:16.427Z,82.17
2018-12-13T03:33:20.301Z,83.68
2018-12-13T03:34:24.234Z,83.87
2018-12-13T03:35:28.196Z,82.73
2018-12-13T03:36:32.113Z,81.35
2018-12-13T03:37:36.052Z,82.13
2018-12-13T03:38:42.756Z,83.47
2018-12-13T03:39:46.689Z,81.37
2018-12-13T03:40:50.611Z,82.50
2018-12-13T03:41:54.509Z,81.94
2018-12-13T03:42:58.426Z,82.65
2018-12-13T03:44:02.402Z,82.58
2018-12-13T03:45:06.388Z,80.95
2018-12-13T03:46:10.360Z,80.95
2018-12-13T03:47:14.295Z,81.36
2018-12-13T03:48:18.264Z,80.35
2018-12-13T03:49:22.209Z,80.69
2018-12-13T03:50:26.109Z,81.38
2018-12-13T03:51:30.018Z,81.71
2018-12-13T03:52:33.904Z,79.55
2018-12-13T03:53:38.063Z,81.32
2018-12-13T03:54:42.006Z,81.73
2018-12-13T03:55:45.929Z,80.89
2018-12-13T03:56:49.878Z,80.09
2018-12-13T03:57:53.812Z,81.59
2018-12-13T03:58:57.730Z,82.56
2018-12-13T04:00:07.881Z,81.11
2018-12-13T04:01:11.812Z,81.28
2018-12-13T04:02:15.875Z,81.03
2018-12-13T04:03:19.796Z,81.93
2018-12-13T04:04:23.737Z,81.84
2018-12-13T04:05:27.645Z,79.37
2018-12-13T04:06:31.553Z,81.94
2018-12-13T04:07:36.450Z,81.51
2018-12-13T04:08:40.393Z,79.46
2018-12-13T04:09:44.302Z,79.56
2018-12-13T04:10:48.235Z,79.91
2018-12-13T04:11:52.168Z,80.31
2018-12-13T04:12:56.202Z,79.96
2018-12-13T04:14:00.162Z,79.86
2018-12-13T04:15:04.223Z,80.35
2018-12-13T04:16:08.163Z,81.54
2018-12-13T04:17:12.104Z,81.18
2018-12-13T04:18:16.046Z,81.84
2018-12-13T04:19:19.979Z,80.70
2018-12-13T04:20:23.913Z,82.24
2018-12-13T04:21:27.775Z,82.75
2018-12-13T04:22:31.737Z,84.47
2018-12-13T04:23:35.678Z,82.24
2018-12-13T04:24:39.683Z,83.28
2018-12-13T04:25:43.642Z,82.12
2018-12-13T04:26:47.519Z,82.56
2018-12-13T04:27:51.527Z,81.98
2018-12-13T04:28:55.438Z,81.11
2018-12-13T04:29:59.350Z,81.13
2018-12-13T04:31:03.279Z,82.97
2018-12-13T04:32:07.181Z,83.00
2018-12-13T04:33:11.176Z,84.75
2018-12-13T04:34:15.044Z,83.96
2018-12-13T04:35:18.947Z,81.27
2018-12-13T04:36:22.864Z,81.54
2018-12-13T04:37:26.798Z,83.64
2018-12-13T04:38:30.847Z,82.40
2018-12-13T04:39:34.796Z,82.70
2018-12-13T04:40:38.736Z,82.31
2018-12-13T04:41:42.708Z,82.17
2018-12-13T04:42:46.602Z,82.79
2018-12-13T04:43:50.569Z,84.01
2018-12-13T04:44:54.499Z,83.58
2018-12-13T04:45:58.420Z,83.95
2018-12-13T04:47:02.329Z,82.03
2018-12-13T04:48:06.289Z,82.17
2018-12-13T04:49:10.241Z,82.46
2018-12-13T04:50:14.139Z,83.40
2018-12-13T04:51:18.075Z,83.59
2018-12-13T04:52:22.032Z,83.68
2018-12-13T04:53:25.972Z,82.99
2018-12-13T04:54:29.933Z,83.99
2018-12-13T04:55:33.811Z,83.35
2018-12-13T04:56:37.737Z,82.46
2018-12-13T04:57:41.681Z,83.25
2018-12-13T04:58:45.609Z,82.66
2018-12-13T04:59:49.820Z,82.28
2018-12-13T05:00:53.740Z,82.98
2018-12-13T05:01:57.679Z,81.63
2018-12-13T05:03:01.582Z,82.92
2018-12-13T05:04:05.545Z,82.30
2018-12-13T05:05:09.467Z,83.01
2018-12-13T05:06:13.388Z,83.49
2018-12-13T05:07:17.355Z,81.52
2018-12-13T05:08:21.230Z,81.89
2018-12-13T05:09:25.102Z,82.87
2018-12-13T05:10:39.972Z,81.17
2018-12-13T05:11:43.961Z,80.83
2018-12-13T05:12:48.009Z,82.58
2018-12-13T05:13:51.887Z,81.90
2018-12-13T05:14:55.761Z,81.47
2018-12-13T05:15:59.692Z,82.58
2018-12-13T05:17:03.652Z,81.72
2018-12-13T05:18:07.613Z,82.49
2018-12-13T05:19:11.606Z,82.26
2018-12-13T05:20:15.549Z,82.63
2018-12-13T05:21:19.505Z,81.70
2018-12-13T05:22:23.418Z,80.67
2018-12-13T05:23:27.404Z,80.43
2018-12-13T05:24:31.311Z,82.08
2018-12-13T05:25:35.266Z,79.25
2018-12-13T05:26:39.250Z,81.17
2018-12-13T05:27:43.211Z,79.22
2018-12-13T05:28:47.539Z,80.88
2018-12-13T05:29:51.777Z,79.73
2018-12-13T05:30:55.963Z,81.97
2018-12-13T05:32:00.237Z,82.63
2018-12-13T05:33:04.618Z,83.18
2018-12-13T05:34:08.776Z,83.04
2018-12-13T05:35:13.142Z,82.88
2018-12-13T05:36:17.496Z,82.58
2018-12-13T05:37:21.776Z,81.74
2018-12-13T05:38:26.167Z,80.84
2018-12-13T05:39:30.452Z,81.07
2018-12-13T05:40:34.730Z,80.28
2018-12-13T05:41:39.056Z,81.83
2018-12-13T05:42:43.393Z,80.10
2018-12-13T05:43:51.648Z,81.23
2018-12-13T05:44:56.176Z,81.25
2018-12-13T05:46:00.499Z,82.20
2018-12-13T05:47:04.700Z,81.02
2018-12-13T05:48:09.080Z,81.67
2018-12-13T05:49:13.538Z,81.57
2018-12-13T05:50:17.639Z,81.99
2018-12-13T05:51:22.046Z,81.80
2018-12-13T05:52:26.574Z,81.41
2018-12-13T05:53:30.786Z,82.62
2018-12-13T05:54:35.059Z,82.58
2018-12-13T05:55:39.347Z,82.48
2018-12-13T05:56:43.673Z,83.07
2018-12-13T05:57:47.832Z,82.80
2018-12-13T05:58:52.364Z,80.72
2018-12-13T05:59:56.717Z,80.08
2018-12-13T06:01:00.901Z,80.17
2018-12-13T06:02:05.146Z,81.69
2018-12-13T06:03:09.493Z,81.43
2018-12-13T06:04:13.912Z,81.21
2018-12-13T06:05:18.156Z,82.49
2018-12-13T06:06:22.573Z,82.77
2018-12-13T06:07:26.834Z,82.11
2018-12-13T06:08:31.120Z,81.43
2018-12-13T06:09:35.528Z,82.57
2018-12-13T06:10:39.743Z,82.59
2018-12-13T06:11:44.127Z,82.66
2018-12-13T06:12:48.392Z,82.59
2018-12-13T06:13:52.554Z,82.88
2018-12-13T06:14:56.863Z,82.90
2018-12-13T06:16:01.157Z,82.62
2018-12-13T06:17:05.551Z,81.50
2018-12-13T06:18:09.901Z,82.36
2018-12-13T06:19:14.133Z,82.76
2018-12-13T06:20:18.562Z,81.49
2018-12-13T06:21:22.771Z,80.37
2018-12-13T06:22:27.067Z,81.94
2018-12-13T06:23:31.404Z,81.24
2018-12-13T06:24:35.698Z,81.74
2018-12-13T06:25:39.915Z,81.29
2018-12-13T06:26:44.172Z,81.76
2018-12-13T06:27:48.304Z,81.29
2018-12-13T06:28:52.532Z,78.05
2018-12-13T06:29:59.022Z,79.82
2018-12-13T06:31:01.288Z,77.52
2018-12-13T06:32:05.668Z,77.87
2018-12-13T06:33:09.916Z,78.68
2018-12-13T06:34:14.237Z,79.18
2018-12-13T06:35:18.580Z,80.65
2018-12-13T06:36:22.815Z,80.35
2018-12-13T06:37:27.067Z,81.41
2018-12-13T06:38:31.413Z,82.49
2018-12-13T06:39:35.736Z,82.01
2018-12-13T06:40:40.134Z,81.33
2018-12-13T06:41:44.547Z,80.36
2018-12-13T06:42:48.707Z,81.18
2018-12-13T06:43:52.934Z,80.27
2018-12-13T06:44:57.493Z,80.53
2018-12-13T06:46:01.736Z,80.92
2018-12-13T06:47:06.426Z,79.70
2018-12-13T06:48:10.722Z,80.31
2018-12-13T06:49:15.073Z,81.41
2018-12-13T06:50:19.662Z,81.22
2018-12-13T06:51:23.972Z,81.53
2018-12-13T06:52:28.440Z,81.42
2018-12-13T06:53:32.727Z,80.54
2018-12-13T06:54:37.049Z,81.95
2018-12-13T06:55:41.331Z,81.82
2018-12-13T06:56:45.664Z,81.83
2018-12-13T06:57:50.058Z,80.01
2018-12-13T06:58:54.359Z,80.16
2018-12-13T06:59:58.671Z,80.00
2018-12-13T07:01:02.915Z,80.16
2018-12-13T07:02:07.340Z,81.66
2018-12-13T07:03:11.818Z,78.82
2018-12-13T07:04:15.967Z,79.39
2018-12-13T07:05:20.310Z,81.48
2018-12-13T07:06:24.611Z,81.15
2018-12-13T07:07:28.963Z,81.78
2018-12-13T07:08:33.387Z,80.91
2018-12-13T07:09:37.744Z,81.66
2018-12-13T07:10:42.118Z,82.42
2018-12-13T07:11:46.480Z,82.98
2018-12-13T07:12:51.139Z,82.86
2018-12-13T07:13:55.568Z,82.21
2018-12-13T07:14:59.869Z,81.22
2018-12-13T07:16:04.161Z,81.78
2018-12-13T07:17:08.578Z,82.46
2018-12-13T07:18:12.997Z,80.76
2018-12-13T07:19:17.417Z,81.38
2018-12-13T07:20:21.757Z,82.12
2018-12-13T07:21:26.120Z,82.58
2018-12-13T07:22:30.555Z,80.65
2018-12-13T07:23:34.804Z,82.14
2018-12-13T07:24:39.200Z,82.11
2018-12-13T07:25:43.559Z,82.01
2018-12-13T07:26:47.850Z,81.60
2018-12-13T07:27:52.119Z,81.16
2018-12-13T07:28:56.621Z,81.87
2018-12-13T07:30:01.009Z,82.76
2018-12-13T07:31:05.204Z,80.95
2018-12-13T07:32:09.574Z,81.94
2018-12-13T07:33:13.792Z,80.65
2018-12-13T07:34:18.204Z,81.22
2018-12-13T07:35:22.672Z,80.82
2018-12-13T07:36:27.015Z,81.91
2018-12-13T07:37:31.312Z,81.16
2018-12-13T07:38:35.646Z,81.92
2018-12-13T07:39:40.005Z,82.10
2018-12-13T07:40:44.381Z,80.58
2018-12-13T07:41:48.724Z,81.64
2018-12-13T07:42:53.165Z,81.37
2018-12-13T07:43:57.381Z,82.07
2018-12-13T07:45:02.057Z,79.97
2018-12-13T07:46:05.623Z,79.00
2018-12-13T07:47:09.606Z,80.73
2018-12-13T07:48:13.589Z,81.37
2018-12-13T07:49:17.528Z,81.97
2018-12-13T07:50:21.807Z,81.83
2018-12-13T07:51:26.027Z,81.78
2018-12-13T07:52:30.391Z,81.96
2018-12-13T07:53:34.330Z,81.02
2018-12-13T07:54:38.324Z,81.77
2018-12-13T07:55:42.259Z,80.06
2018-12-13T07:56:46.241Z,79.87
2018-12-13T07:57:50.222Z,80.68
2018-12-13T07:58:54.201Z,80.34
2018-12-13T07:59:58.192Z,80.97
2018-12-13T08:01:02.144Z,84.17
2018-12-13T08:02:06.146Z,83.82
2018-12-13T08:03:10.093Z,81.74
2018-12-13T08:04:14.100Z,82.47
2018-12-13T08:05:18.063Z,82.87
2018-12-13T08:06:22.069Z,83.22
2018-12-13T08:07:26.390Z,82.64
2018-12-13T08:08:30.756Z,83.05
2018-12-13T08:09:35.070Z,79.66
2018-12-13T08:10:39.411Z,80.79
2018-12-13T08:11:43.435Z,81.69
2018-12-13T08:12:47.375Z,81.46
2018-12-13T08:13:51.309Z,79.02
2018-12-13T08:14:55.251Z,80.48
2018-12-13T08:15:59.231Z,79.63
2018-12-13T08:17:03.291Z,81.25
2018-12-13T08:18:07.303Z,79.42
2018-12-13T08:19:11.247Z,79.80
2018-12-13T08:20:15.188Z,81.16
2018-12-13T08:21:19.148Z,81.73
2018-12-13T08:22:23.085Z,81.55
2018-12-13T08:23:27.029Z,81.35
2018-12-13T08:24:30.979Z,77.97
2018-12-13T08:25:34.993Z,80.32
2018-12-13T08:26:38.954Z,79.63
2018-12-13T08:27:42.903Z,80.21
2018-12-13T08:28:46.957Z,80.23
2018-12-13T08:29:50.895Z,80.30
2018-12-13T08:30:54.851Z,80.66
2018-12-13T08:31:58.885Z,81.47
2018-12-13T08:33:02.813Z,81.02
2018-12-13T08:34:06.837Z,80.81
2018-12-13T08:35:10.734Z,80.75
2018-12-13T08:36:14.655Z,80.83
2018-12-13T08:37:18.604Z,78.75
2018-12-13T08:38:27.277Z,80.14
2018-12-13T08:39:26.625Z,80.49
2018-12-13T08:40:30.700Z,80.04
2018-12-13T08:41:34.630Z,80.29
2018-12-13T08:42:38.565Z,78.61
2018-12-13T08:43:42.655Z,79.07
2018-12-13T08:44:46.620Z,80.00
2018-12-13T08:45:50.728Z,77.11
2018-12-13T08:46:54.651Z,78.70
2018-12-13T08:47:58.612Z,79.25
2018-12-13T08:49:02.518Z,79.98
2018-12-13T08:50:06.629Z,80.41
2018-12-13T08:51:10.617Z,79.34
2018-12-13T08:52:14.561Z,78.05
2018-12-13T08:53:18.625Z,78.94
2018-12-13T08:54:22.565Z,79.56
2018-12-13T08:55:26.492Z,79.17
2018-12-13T08:56:30.441Z,79.39
2018-12-13T08:57:34.398Z,79.38
2018-12-13T08:58:38.357Z,79.71
2018-12-13T08:59:42.460Z,79.31
2018-12-13T09:00:46.411Z,78.53
2018-12-13T09:01:50.323Z,79.23
2018-12-13T09:02:54.284Z,77.51
2018-12-13T09:03:58.236Z,77.97
2018-12-13T09:05:02.155Z,78.54
2018-12-13T09:06:06.083Z,77.24
2018-12-13T09:07:09.983Z,78.83
2018-12-13T09:08:13.915Z,79.09
2018-12-13T09:09:17.853Z,79.31
2018-12-13T09:10:22.153Z,78.90
2018-12-13T09:11:26.496Z,77.69
2018-12-13T09:12:30.766Z,77.75
2018-12-13T09:13:35.196Z,77.58
2018-12-13T09:14:39.478Z,78.31
2018-12-13T09:15:43.847Z,78.80
2018-12-13T09:16:48.169Z,77.42
2018-12-13T09:17:52.397Z,78.02
2018-12-13T09:18:56.712Z,78.74
2018-12-13T09:20:01.017Z,78.17
2018-12-13T09:21:05.364Z,78.06
2018-12-13T09:22:09.738Z,77.59
2018-12-13T09:23:14.120Z,76.52
2018-12-13T09:24:18.731Z,78.12
2018-12-13T09:25:23.793Z,76.84
2018-12-13T09:26:28.008Z,75.47
2018-12-13T09:27:32.281Z,75.93
2018-12-13T09:28:36.600Z,77.01
2018-12-13T09:29:40.852Z,77.01
2018-12-13T09:30:45.323Z,76.29
2018-12-13T09:31:49.670Z,76.84
2018-12-13T09:32:53.995Z,76.71
2018-12-13T09:33:58.073Z,77.50
2018-12-13T09:35:02.496Z,77.32
2018-12-13T09:36:06.684Z,75.43
2018-12-13T09:37:10.962Z,76.25
2018-12-13T09:38:15.440Z,76.80
2018-12-13T09:39:19.828Z,77.13
2018-12-13T09:40:30.307Z,76.37
2018-12-13T09:41:34.574Z,76.77
2018-12-13T09:42:38.757Z,77.42
2018-12-13T09:43:43.009Z,77.13
2018-12-13T09:44:47.205Z,76.78
2018-12-13T09:45:51.496Z,77.37
2018-12-13T09:46:55.873Z,77.04
2018-12-13T09:48:00.173Z,77.48
2018-12-13T09:49:04.572Z,76.41
2018-12-13T09:50:08.892Z,76.39
2018-12-13T09:51:13.137Z,76.66
2018-12-13T09:52:17.440Z,77.89
2018-12-13T09:53:21.777Z,76.33
2018-12-13T09:54:26.195Z,77.01
2018-12-13T09:55:30.583Z,77.87
2018-12-13T09:56:34.862Z,76.41
2018-12-13T09:57:39.243Z,76.83
2018-12-13T09:58:43.500Z,76.74
2018-12-13T09:59:47.934Z,75.52
2018-12-13T10:00:52.191Z,76.57
2018-12-13T10:01:56.521Z,76.00
2018-12-13T10:03:00.818Z,75.94
2018-12-13T10:04:05.566Z,76.49
2018-12-13T10:05:10.015Z,76.31
2018-12-13T10:06:14.539Z,76.86
2018-12-13T10:07:18.830Z,76.63
2018-12-13T10:08:23.096Z,75.43
2018-12-13T10:09:27.311Z,76.30
2018-12-13T10:10:31.606Z,76.69
2018-12-13T10:11:36.004Z,76.92
2018-12-13T10:12:40.195Z,77.13
2018-12-13T10:13:44.531Z,76.42
2018-12-13T10:14:48.656Z,75.33
2018-12-13T10:15:52.883Z,74.90
2018-12-13T10:16:57.099Z,75.96
2018-12-13T10:18:01.454Z,76.20
2018-12-13T10:19:05.760Z,75.12
2018-12-13T10:20:10.098Z,75.49
2018-12-13T10:21:14.497Z,76.28
2018-12-13T10:22:18.816Z,75.46
2018-12-13T10:23:23.066Z,75.91
2018-12-13T10:24:27.441Z,76.36
2018-12-13T10:25:31.887Z,75.31
2018-12-13T10:26:36.283Z,74.22
2018-12-13T10:27:40.640Z,75.40
2018-12-13T10:28:44.839Z,75.50
2018-12-13T10:29:49.114Z,76.29
2018-12-13T10:30:53.337Z,75.17
2018-12-13T10:31:57.725Z,75.56
2018-12-13T10:33:02.048Z,75.16
2018-12-13T10:34:06.369Z,75.81
2018-12-13T10:35:11.473Z,76.29
2018-12-13T10:36:15.116Z,76.46
2018-12-13T10:37:19.425Z,76.57
2018-12-13T10:38:23.868Z,76.19
2018-12-13T10:39:28.102Z,74.99
2018-12-13T10:40:32.440Z,74.39
2018-12-13T10:41:36.739Z,75.51
2018-12-13T10:42:41.114Z,76.01
2018-12-13T10:43:45.522Z,75.42
2018-12-13T10:44:49.737Z,75.02
2018-12-13T10:45:54.331Z,75.95
2018-12-13T10:46:58.763Z,74.17
2018-12-13T10:48:03.053Z,75.37
2018-12-13T10:49:07.427Z,76.41
2018-12-13T10:50:11.711Z,75.73
2018-12-13T10:51:16.043Z,75.47
2018-12-13T10:52:20.267Z,76.31
2018-12-13T10:53:24.850Z,75.54
2018-12-13T10:54:29.176Z,75.12
2018-12-13T10:55:33.486Z,74.74
2018-12-13T10:56:37.762Z,74.36
2018-12-13T10:57:42.101Z,74.85
2018-12-13T10:58:46.430Z,74.75
2018-12-13T10:59:50.815Z,75.61
2018-12-13T11:01:00.079Z,74.96
2018-12-13T11:02:07.647Z,75.97
2018-12-13T11:03:23.418Z,75.94
2018-12-13T11:04:27.799Z,75.74
2018-12-13T11:05:32.141Z,76.09
2018-12-13T11:06:36.530Z,74.63
2018-12-13T11:07:40.864Z,75.58
2018-12-13T11:08:45.197Z,75.09
2018-12-13T11:09:49.556Z,75.79
2018-12-13T11:10:53.878Z,76.34
2018-12-13T11:11:58.087Z,75.75
2018-12-13T11:13:02.481Z,73.86
2018-12-13T11:14:06.792Z,75.27
2018-12-13T11:15:11.089Z,74.60
2018-12-13T11:16:15.409Z,75.37
2018-12-13T11:17:19.757Z,74.89
2018-12-13T11:18:24.101Z,75.69
2018-12-13T11:19:28.661Z,75.44
2018-12-13T11:20:33.174Z,74.53
2018-12-13T11:21:37.520Z,75.16
2018-12-13T11:22:41.772Z,75.50
2018-12-13T11:23:46.214Z,74.37
2018-12-13T11:24:50.616Z,74.48
2018-12-13T11:25:55.039Z,73.68
2018-12-13T11:28:11.535Z,74.30
2018-12-13T11:30:24.993Z,74.18
2018-12-13T11:31:28.922Z,73.60
2018-12-13T11:32:33.250Z,74.61
2018-12-13T11:33:37.533Z,75.87
2018-12-13T11:34:41.831Z,75.51
2018-12-13T11:35:46.214Z,75.57
2018-12-13T11:36:50.448Z,75.44
2018-12-13T11:37:54.819Z,75.08
2018-12-13T11:38:59.100Z,75.35
2018-12-13T11:40:03.536Z,73.91
2018-12-13T11:41:07.859Z,74.32
2018-12-13T11:42:12.244Z,73.86
2018-12-13T11:43:16.684Z,74.00
2018-12-13T11:44:21.056Z,75.09
2018-12-13T11:45:25.679Z,75.34
2018-12-13T11:46:30.104Z,75.59
2018-12-13T11:47:34.510Z,74.05
2018-12-13T11:48:39.230Z,75.26
2018-12-13T11:49:43.600Z,75.23
2018-12-13T11:50:47.808Z,75.86
2018-12-13T11:51:52.054Z,76.47
2018-12-13T11:52:56.383Z,76.56
2018-12-13T11:54:00.875Z,75.92
2018-12-13T11:55:44.896Z,75.57
2018-12-13T11:56:48.914Z,76.31
2018-12-13T11:57:53.175Z,74.60
2018-12-13T11:58:57.391Z,76.01
2018-12-13T12:00:01.671Z,75.89
2018-12-13T12:01:06.072Z,75.29
2018-12-13T12:02:10.510Z,75.41
2018-12-13T12:03:14.915Z,75.98
2018-12-13T12:04:19.279Z,76.02
2018-12-13T12:05:23.671Z,75.91
2018-12-13T12:06:28.145Z,74.91
2018-12-13T12:07:32.498Z,74.84
2018-12-13T12:08:36.939Z,75.41
2018-12-13T12:09:41.307Z,74.26
2018-12-13T12:10:45.653Z,74.40
2018-12-13T12:11:50.117Z,74.37
2018-12-13T12:12:54.612Z,73.79
2018-12-13T12:13:58.802Z,75.24
2018-12-13T12:15:03.357Z,74.94
2018-12-13T12:16:07.677Z,74.80
2018-12-13T12:17:12.165Z,74.81
2018-12-13T12:18:16.499Z,76.32
2018-12-13T12:19:20.931Z,76.42
2018-12-13T12:20:25.325Z,75.28
2018-12-13T12:21:29.608Z,75.29
2018-12-13T12:22:34.030Z,75.75
2018-12-13T12:23:38.461Z,75.37
2018-12-13T12:24:42.848Z,75.32
2018-12-13T12:25:47.164Z,76.71
2018-12-13T12:26:51.530Z,76.51
2018-12-13T12:27:55.896Z,76.92
2018-12-13T12:29:00.327Z,77.40
2018-12-13T12:30:04.828Z,76.20
2018-12-13T12:31:09.214Z,76.20
2018-12-13T12:32:13.638Z,75.71
2018-12-13T12:33:17.914Z,75.78
2018-12-13T12:34:22.280Z,75.48
2018-12-13T12:35:26.611Z,76.36
2018-12-13T12:36:32.072Z,76.81
2018-12-13T12:37:35.346Z,76.49
2018-12-13T12:38:39.761Z,75.22
2018-12-13T12:39:44.121Z,76.98
2018-12-13T12:40:48.598Z,77.02
2018-12-13T12:41:52.905Z,76.55
2018-12-13T12:42:57.203Z,76.84
2018-12-13T12:44:01.491Z,77.31
2018-12-13T12:45:06.835Z,76.65
2018-12-13T12:46:11.033Z,75.82
2018-12-13T12:47:15.258Z,76.21
2018-12-13T12:48:19.718Z,76.87
2018-12-13T12:49:25.326Z,76.96
2018-12-13T12:50:28.606Z,77.66
2018-12-13T12:51:33.140Z,77.27
2018-12-13T12:52:37.421Z,77.57
2018-12-13T12:53:41.688Z,77.37
2018-12-13T12:54:45.903Z,76.43
2018-12-13T12:55:49.869Z,77.52
2018-12-13T12:56:53.827Z,75.41
2018-12-13T12:57:57.751Z,76.59
2018-12-13T12:59:01.661Z,77.22
2018-12-13T13:00:06.432Z,76.90
2018-12-13T13:01:10.524Z,76.78
2018-12-13T13:02:14.573Z,76.20
2018-12-13T13:03:18.597Z,77.34
2018-12-13T13:04:23.100Z,76.62
2018-12-13T13:05:27.451Z,76.79
2018-12-13T13:06:31.851Z,76.64
2018-12-13T13:07:36.277Z,76.53
2018-12-13T13:08:41.255Z,77.57
2018-12-13T13:09:45.726Z,76.67
2018-12-13T13:10:50.379Z,76.68
2018-12-13T13:11:56.144Z,77.75
2018-12-13T13:13:01.468Z,77.81
2018-12-13T13:14:05.799Z,77.57
2018-12-13T13:15:10.276Z,78.09
2018-12-13T13:16:15.614Z,78.44
2018-12-13T13:17:20.026Z,78.37
2018-12-13T13:18:24.387Z,77.97
2018-12-13T13:19:28.873Z,78.37
2018-12-13T13:20:33.037Z,78.03
2018-12-13T13:21:41.070Z,78.24
2018-12-13T13:22:45.715Z,79.03
2018-12-13T13:23:49.874Z,79.11
2018-12-13T13:24:54.989Z,79.43
2018-12-13T13:26:00.802Z,78.70
2018-12-13T13:28:36.523Z,77.88
2018-12-13T13:29:42.634Z,77.17
2018-12-13T13:30:50.978Z,77.17
2018-12-13T13:31:56.177Z,77.58
2018-12-13T13:33:00.587Z,78.17
2018-12-13T13:34:05.103Z,78.18
2018-12-13T13:35:09.740Z,78.70
2018-12-13T13:36:14.426Z,77.56
2018-12-13T13:37:19.001Z,78.20
2018-12-13T13:38:23.512Z,77.79
2018-12-13T13:39:31.553Z,78.85
2018-12-13T13:40:33.162Z,78.69
2018-12-13T13:41:37.578Z,78.54
2018-12-13T13:42:42.191Z,78.64
2018-12-13T13:43:46.623Z,79.35
2018-12-13T13:44:55.152Z,78.06
2018-12-13T13:45:59.614Z,78.35
2018-12-13T13:47:04.172Z,78.74
2018-12-13T13:48:08.634Z,80.03
2018-12-13T13:49:13.039Z,80.59
2018-12-13T13:50:17.499Z,80.57
2018-12-13T13:51:21.899Z,80.13
2018-12-13T13:52:26.329Z,80.65